Caribe Legend — V2ST — position and weather

sailwx.info

Track history (hours):
 
Tides and Currents Weather Stations Pressure Air Temp Water Temp Dewpoint Dewpoint Depression Visibility Wind Speed Wind Dir Waves Ship Positions

Caribe Legend

Last reported at 2018-Feb-22 14:00 UTC. Time now 2018-Feb-22 19:25 UTC.
Position N 26°46' W 080°03'.

Length 100 m; draft 5 m.

Type: Cargo ship. MMSI: 304598000.

Date/timePositionNaut miles runAvg speedWind from/ knotsBaromVisibWave heightAir tempDewpointWater temp
2018-Feb-22 14:00N 26°46' W 080°03'0 0.0
2018-Feb-21 00:56N 26°46' W 080°03'0 0.1
2018-Feb-21 00:12N 26°46' W 080°03'0 0.0
2018-Feb-20 23:54N 26°46' W 080°03'0 0.0
2018-Feb-20 23:12N 26°46' W 080°03'0 0.0
2018-Feb-20 22:57N 26°46' W 080°03'0 0.0
2018-Feb-20 22:30N 26°46' W 080°03'0 0.0
2018-Feb-20 19:39N 26°46' W 080°03'0 0.0
2018-Feb-20 19:30N 26°46' W 080°03'0 0.0
2018-Feb-20 19:00N 26°46' W 080°03'0 0.0
2018-Feb-20 18:24N 26°46' W 080°03'0 0.0
2018-Feb-20 17:12N 26°46' W 080°03'0 0.0
2018-Feb-20 16:54N 26°46' W 080°03'0 0.0
2018-Feb-20 16:27N 26°46' W 080°03'0 0.0
2018-Feb-20 16:00N 26°46' W 080°03'0 0.0
2018-Feb-20 15:00N 26°46' W 080°03'0 0.0
2018-Feb-20 14:30N 26°46' W 080°03'0 0.0
2018-Feb-20 14:00N 26°46' W 080°03'0 0.0
2018-Feb-20 13:30N 26°46' W 080°03'0 0.0
2018-Feb-20 13:00N 26°46' W 080°03'0 0.0
2018-Feb-20 12:30N 26°46' W 080°03'0 0.0
2018-Feb-20 12:00N 26°46' W 080°03'1 2.9
2018-Feb-20 11:30N 26°46' W 080°01'1 2.6
2018-Feb-20 11:00N 26°46' W 079°60'4 6.9
2018-Feb-20 10:26N 26°44' W 079°56'5 0.1
2018-Feb-18 19:18N 26°45' W 080°01'0 0.0
2018-Feb-18 13:27N 26°45' W 080°01'2 0.1
2018-Feb-17 13:06N 26°46' W 080°03'0 0.6
2018-Feb-17 13:00N 26°46' W 080°03'2 4.7
2018-Feb-17 12:31N 26°46' W 080°00'3 5.0
2018-Feb-17 11:52N 26°45' W 079°57'5 0.1
2018-Feb-15 13:33N 26°46' W 080°03'0 3.1
2018-Feb-15 13:29N 26°46' W 080°03'0 0.0
2018-Feb-13 23:14N 26°46' W 080°03'0 0.0
2018-Feb-13 22:59N 26°46' W 080°03'0 0.0
2018-Feb-13 21:25N 26°46' W 080°03'0 0.0
2018-Feb-13 20:55N 26°46' W 080°03'0 0.0
2018-Feb-13 20:25N 26°46' W 080°03'0 0.0
2018-Feb-13 19:58N 26°46' W 080°03'0 0.0
2018-Feb-13 19:28N 26°46' W 080°03'0 0.0
2018-Feb-13 18:58N 26°46' W 080°03'0 0.0
2018-Feb-13 18:28N 26°46' W 080°03'0 0.0
2018-Feb-13 17:55N 26°46' W 080°03'0 0.0
2018-Feb-13 17:28N 26°46' W 080°03'0 0.0
2018-Feb-13 16:55N 26°46' W 080°03'0 0.0
2018-Feb-13 13:04N 26°46' W 080°03'0 0.0
2018-Feb-13 12:58N 26°46' W 080°03'1 1.3
2018-Feb-13 12:30N 26°46' W 080°02'3 6.5
2018-Feb-13 12:00N 26°46' W 079°59'  
Track history (hours):
 
Tides and Currents Weather Stations Pressure Air Temp Water Temp Dewpoint Dewpoint Depression Visibility Wind Speed Wind Dir Waves Ship Positions

Caribe Legend

Last reported at 2018-Feb-22 14:00 UTC. Time now 2018-Feb-22 19:25 UTC.
Position N 26°46' W 080°03'.

Length 100 m; draft 5 m.

Type: Cargo ship. MMSI: 304598000.

Date/timePositionNaut miles runAvg speedWind from/ knotsBaromVisibWave heightAir tempDewpointWater temp
2018-Feb-22 14:00N 26°46' W 080°03'0 0.0
2018-Feb-21 00:56N 26°46' W 080°03'0 0.1
2018-Feb-21 00:12N 26°46' W 080°03'0 0.0
2018-Feb-20 23:54N 26°46' W 080°03'0 0.0
2018-Feb-20 23:12N 26°46' W 080°03'0 0.0
2018-Feb-20 22:57N 26°46' W 080°03'0 0.0
2018-Feb-20 22:30N 26°46' W 080°03'0 0.0
2018-Feb-20 19:39N 26°46' W 080°03'0 0.0
2018-Feb-20 19:30N 26°46' W 080°03'0 0.0
2018-Feb-20 19:00N 26°46' W 080°03'0 0.0
2018-Feb-20 18:24N 26°46' W 080°03'0 0.0
2018-Feb-20 17:12N 26°46' W 080°03'0 0.0
2018-Feb-20 16:54N 26°46' W 080°03'0 0.0
2018-Feb-20 16:27N 26°46' W 080°03'0 0.0
2018-Feb-20 16:00N 26°46' W 080°03'0 0.0
2018-Feb-20 15:00N 26°46' W 080°03'0 0.0
2018-Feb-20 14:30N 26°46' W 080°03'0 0.0
2018-Feb-20 14:00N 26°46' W 080°03'0 0.0
2018-Feb-20 13:30N 26°46' W 080°03'0 0.0
2018-Feb-20 13:00N 26°46' W 080°03'0 0.0
2018-Feb-20 12:30N 26°46' W 080°03'0 0.0
2018-Feb-20 12:00N 26°46' W 080°03'1 2.9
2018-Feb-20 11:30N 26°46' W 080°01'1 2.6
2018-Feb-20 11:00N 26°46' W 079°60'4 6.9
2018-Feb-20 10:26N 26°44' W 079°56'5 0.1
2018-Feb-18 19:18N 26°45' W 080°01'0 0.0
2018-Feb-18 13:27N 26°45' W 080°01'2 0.1
2018-Feb-17 13:06N 26°46' W 080°03'0 0.6
2018-Feb-17 13:00N 26°46' W 080°03'2 4.7
2018-Feb-17 12:31N 26°46' W 080°00'3 5.0
2018-Feb-17 11:52N 26°45' W 079°57'5 0.1
2018-Feb-15 13:33N 26°46' W 080°03'0 3.1
2018-Feb-15 13:29N 26°46' W 080°03'0 0.0
2018-Feb-13 23:14N 26°46' W 080°03'0 0.0
2018-Feb-13 22:59N 26°46' W 080°03'0 0.0
2018-Feb-13 21:25N 26°46' W 080°03'0 0.0
2018-Feb-13 20:55N 26°46' W 080°03'0 0.0
2018-Feb-13 20:25N 26°46' W 080°03'0 0.0
2018-Feb-13 19:58N 26°46' W 080°03'0 0.0
2018-Feb-13 19:28N 26°46' W 080°03'0 0.0
2018-Feb-13 18:58N 26°46' W 080°03'0 0.0
2018-Feb-13 18:28N 26°46' W 080°03'0 0.0
2018-Feb-13 17:55N 26°46' W 080°03'0 0.0
2018-Feb-13 17:28N 26°46' W 080°03'0 0.0
2018-Feb-13 16:55N 26°46' W 080°03'0 0.0
2018-Feb-13 13:04N 26°46' W 080°03'0 0.0
2018-Feb-13 12:58N 26°46' W 080°03'1 1.3
2018-Feb-13 12:30N 26°46' W 080°02'3 6.5
2018-Feb-13 12:00N 26°46' W 079°59'  

Dump ship's entire track history